Time;durP1;ratioP1;P1;durP2;ratioP2;P2;SDS_P1;SDS_P2;PMS_P1;PMS_P2;Temp;Humidity;BMP_temperature;BMP_pressure;BME280_temperature;BME280_humidity;BME280_pressure;Samples;Min_cycle;Max_cycle;Signal;HPM_P1;HPM_P2
2021/06/18 00:00:53;;;;;;;17.97;16.50;;;24.60;99.90;;;;;;5114946;27;20462;-73
2021/06/18 00:03:20;;;;;;;17.70;16.30;;;24.60;99.90;;;;;;5110222;27;20847;-73
2021/06/18 00:05:47;;;;;;;17.50;16.30;;;24.60;99.90;;;;;;5115104;27;20456;-73
2021/06/18 00:08:15;;;;;;;17.77;16.07;;;24.50;99.90;;;;;;5114678;27;20497;-73
2021/06/18 00:10:41;;;;;;;19.33;17.73;;;24.50;99.90;;;;;;5115940;27;20825;-75
2021/06/18 00:13:08;;;;;;;17.53;16.03;;;24.50;99.90;;;;;;5113058;27;20844;-74
2021/06/18 00:15:35;;;;;;;17.97;16.67;;;24.50;99.90;;;;;;5117761;27;20830;-74
2021/06/18 00:18:03;;;;;;;18.83;17.13;;;24.60;99.90;;;;;;5119164;27;20484;-75
2021/06/18 00:20:30;;;;;;;18.33;16.57;;;24.50;99.90;;;;;;5118116;27;20457;-74
2021/06/18 00:22:57;;;;;;;17.80;16.27;;;24.40;99.90;;;;;;5115217;27;20453;-75
2021/06/18 00:25:24;;;;;;;19.10;17.30;;;24.40;99.90;;;;;;5113409;27;20988;-75
2021/06/18 00:27:52;;;;;;;19.43;16.53;;;24.40;99.90;;;;;;5112994;27;21060;-75
2021/06/18 00:30:20;;;;;;;19.57;17.90;;;24.50;99.90;;;;;;5118302;27;20544;-73
2021/06/18 00:32:48;;;;;;;21.93;17.73;;;24.50;99.90;;;;;;5111584;27;20461;-74
2021/06/18 00:35:16;;;;;;;19.47;17.77;;;24.40;99.90;;;;;;5112237;27;20487;-74
2021/06/18 00:37:42;;;;;;;18.93;17.47;;;24.40;99.90;;;;;;5114877;27;20488;-73
2021/06/18 00:40:10;;;;;;;18.77;17.00;;;24.40;99.90;;;;;;5113519;27;20457;-76
2021/06/18 00:42:37;;;;;;;19.50;17.80;;;24.40;99.90;;;;;;5116166;27;20457;-75
2021/06/18 00:45:05;;;;;;;18.40;16.97;;;24.30;99.90;;;;;;5113321;27;20464;-75
2021/06/18 00:47:32;;;;;;;19.70;18.00;;;24.20;99.90;;;;;;5112444;27;21032;-75
2021/06/18 00:49:59;;;;;;;20.47;17.80;;;24.20;99.90;;;;;;5113669;27;20465;-75
2021/06/18 00:52:27;;;;;;;19.80;18.07;;;24.20;99.90;;;;;;5115419;27;20465;-74
2021/06/18 00:54:54;;;;;;;21.37;18.20;;;24.10;99.90;;;;;;5114127;27;20488;-76
2021/06/18 00:57:22;;;;;;;20.20;18.37;;;24.00;99.90;;;;;;5115941;27;20569;-76
2021/06/18 00:59:49;;;;;;;18.80;17.37;;;24.00;99.90;;;;;;5114553;27;20453;-75
2021/06/18 01:02:16;;;;;;;17.87;16.07;;;23.90;99.90;;;;;;5113559;27;20465;-75
2021/06/18 01:04:43;;;;;;;18.47;16.67;;;23.90;99.90;;;;;;5112365;27;20839;-75
2021/06/18 01:07:15;;;;;;;18.43;16.93;;;23.80;99.90;;;;;;5114932;27;20493;-76
2021/06/18 01:09:50;;;;;;;18.07;16.50;;;23.80;99.90;;;;;;5114611;27;20451;-74
2021/06/18 01:12:21;;;;;;;28.00;16.40;;;23.70;99.90;;;;;;5113519;27;20452;-75
2021/06/18 01:14:58;;;;;;;18.60;17.30;;;23.70;99.90;;;;;;5112258;27;20472;-74
2021/06/18 01:17:32;;;;;;;18.17;16.90;;;23.80;99.90;;;;;;5112208;27;20487;-75
2021/06/18 01:20:16;;;;;;;18.43;17.23;;;23.70;99.90;;;;;;5118077;27;20955;-75
2021/06/18 01:22:47;;;;;;;19.77;18.03;;;23.70;99.90;;;;;;5116818;27;20448;-74
2021/06/18 01:25:23;;;;;;;21.13;19.03;;;23.60;99.90;;;;;;5114276;27;20453;-76
2021/06/18 01:27:54;;;;;;;19.60;18.30;;;23.60;99.90;;;;;;5115508;27;20985;-75
2021/06/18 01:30:24;;;;;;;19.07;17.50;;;23.50;99.90;;;;;;5110061;27;20461;-75
2021/06/18 01:32:59;;;;;;;18.20;17.00;;;23.40;99.90;;;;;;5110417;27;20457;-73
2021/06/18 01:35:32;;;;;;;19.63;18.07;;;23.50;99.90;;;;;;5119646;27;20473;-75
2021/06/18 01:38:01;;;;;;;19.07;17.40;;;23.40;99.90;;;;;;5112598;27;20571;-75
2021/06/18 01:40:29;;;;;;;19.90;17.90;;;23.30;99.90;;;;;;5112489;27;20464;-75
2021/06/18 01:42:59;;;;;;;19.30;17.77;;;23.30;99.90;;;;;;5113238;27;20452;-75
2021/06/18 01:45:29;;;;;;;19.87;18.23;;;23.30;99.90;;;;;;5115527;27;20523;-75
2021/06/18 01:47:57;;;;;;;19.03;17.73;;;23.20;99.90;;;;;;5118668;27;20832;-74
2021/06/18 01:50:26;;;;;;;19.77;18.30;;;23.20;99.90;;;;;;5110628;27;20472;-75
2021/06/18 01:53:00;;;;;;;21.27;18.80;;;23.20;99.90;;;;;;5111485;27;20469;-74
2021/06/18 01:55:27;;;;;;;19.70;18.30;;;23.20;99.90;;;;;;5121358;27;21063;-76
2021/06/18 01:57:56;;;;;;;19.90;18.47;;;23.10;99.90;;;;;;5112787;27;20500;-74
2021/06/18 02:00:24;;;;;;;20.07;18.47;;;23.00;99.90;;;;;;5115347;27;20463;-75
2021/06/18 02:02:53;;;;;;;17.90;16.80;;;23.00;99.90;;;;;;5118325;27;20536;-75
2021/06/18 02:05:22;;;;;;;18.93;17.70;;;23.00;99.90;;;;;;5113139;27;20457;-76
2021/06/18 02:07:52;;;;;;;19.23;17.87;;;22.90;99.90;;;;;;5111525;28;20456;-75
2021/06/18 02:10:19;;;;;;;18.43;17.13;;;22.80;99.90;;;;;;5114699;28;20460;-75
2021/06/18 02:12:47;;;;;;;18.40;17.20;;;22.80;99.90;;;;;;5113422;28;20513;-74
2021/06/18 02:15:17;;;;;;;19.17;17.87;;;22.90;99.90;;;;;;5109953;28;20468;-74
2021/06/18 02:17:44;;;;;;;19.67;18.33;;;22.80;99.90;;;;;;5115697;28;20479;-75
2021/06/18 02:20:14;;;;;;;19.50;17.90;;;22.70;99.90;;;;;;5114067;28;20463;-76
2021/06/18 02:22:42;;;;;;;18.90;17.50;;;22.60;99.90;;;;;;5110590;28;20493;-75
2021/06/18 02:25:12;;;;;;;19.23;17.93;;;22.60;99.90;;;;;;5118974;28;20452;-74
2021/06/18 02:27:40;;;;;;;19.30;17.53;;;22.60;99.90;;;;;;5114918;28;20989;-73
2021/06/18 02:30:11;;;;;;;18.57;17.23;;;22.50;99.90;;;;;;5119804;27;20457;-74
2021/06/18 02:32:40;;;;;;;19.03;17.50;;;22.40;99.90;;;;;;5118253;27;20460;-74
2021/06/18 02:35:09;;;;;;;20.00;18.40;;;22.40;99.90;;;;;;5113448;27;20966;-76
2021/06/18 02:37:37;;;;;;;23.90;17.60;;;22.40;99.90;;;;;;5110745;27;20823;-75
2021/06/18 02:40:06;;;;;;;18.67;16.90;;;22.40;99.90;;;;;;5115416;27;20461;-74
2021/06/18 02:42:33;;;;;;;18.80;17.37;;;22.30;99.90;;;;;;5121235;27;20582;-74
2021/06/18 02:45:01;;;;;;;18.03;16.73;;;22.20;99.90;;;;;;5116921;27;20465;-74
2021/06/18 02:47:33;;;;;;;17.50;16.20;;;22.20;99.90;;;;;;5119316;27;20863;-76
2021/06/18 02:50:06;;;;;;;20.37;18.40;;;22.10;99.90;;;;;;5113290;27;20457;-75
2021/06/18 02:52:41;;;;;;;19.77;18.27;;;22.20;99.90;;;;;;5112918;27;20997;-74
2021/06/18 02:55:13;;;;;;;20.20;18.70;;;22.20;99.90;;;;;;5118446;27;20529;-76
2021/06/18 02:57:48;;;;;;;20.43;18.50;;;22.10;99.90;;;;;;5108448;28;20488;-76
2021/06/18 03:00:16;;;;;;;20.27;18.77;;;22.20;99.90;;;;;;5117309;27;20460;-76
2021/06/18 03:02:47;;;;;;;18.93;16.80;;;22.20;99.90;;;;;;5119792;27;20457;-75
2021/06/18 03:05:17;;;;;;;17.40;16.20;;;22.20;99.90;;;;;;5124011;27;20877;-75
2021/06/18 03:07:54;;;;;;;21.20;19.40;;;22.20;99.90;;;;;;5118107;27;20540;-76
2021/06/18 03:10:25;;;;;;;18.43;16.83;;;22.20;99.90;;;;;;5112038;27;20467;-76
2021/06/18 03:12:59;;;;;;;19.63;17.87;;;22.20;99.90;;;;;;5119970;27;20456;-75
2021/06/18 03:15:28;;;;;;;18.93;17.20;;;22.20;99.90;;;;;;5117593;27;20985;-75
2021/06/18 03:17:56;;;;;;;19.23;17.73;;;22.20;99.90;;;;;;5113795;27;20959;-75
2021/06/18 03:20:24;;;;;;;21.60;19.47;;;22.10;99.90;;;;;;5121247;27;21015;-76
2021/06/18 03:22:59;;;;;;;18.70;17.30;;;22.10;99.90;;;;;;5116753;27;20469;-75
2021/06/18 03:25:28;;;;;;;17.70;16.27;;;22.30;99.90;;;;;;5116061;27;20471;-75
2021/06/18 03:27:56;;;;;;;18.53;17.17;;;22.20;99.90;;;;;;5121986;27;20846;-76
2021/06/18 03:30:25;;;;;;;19.77;18.53;;;22.10;99.90;;;;;;5114663;27;20465;-75
2021/06/18 03:32:54;;;;;;;19.23;17.67;;;22.00;99.90;;;;;;5113811;27;20871;-76
2021/06/18 03:35:22;;;;;;;19.20;17.50;;;22.10;99.90;;;;;;5110301;27;20754;-74
2021/06/18 03:37:50;;;;;;;19.97;18.30;;;22.10;99.90;;;;;;5118422;27;20473;-73
2021/06/18 03:40:21;;;;;;;23.50;18.23;;;22.10;99.90;;;;;;5119375;27;20457;-75
2021/06/18 03:42:49;;;;;;;18.57;17.27;;;22.20;99.90;;;;;;5117643;27;20483;-74
2021/06/18 03:45:17;;;;;;;18.87;17.57;;;22.20;99.90;;;;;;5118255;27;20452;-74
2021/06/18 03:47:45;;;;;;;20.00;18.50;;;22.30;99.90;;;;;;5115354;27;20453;-76
2021/06/18 03:50:14;;;;;;;18.27;17.03;;;22.30;99.90;;;;;;5116219;27;20473;-75
2021/06/18 03:52:41;;;;;;;19.67;17.97;;;22.40;99.90;;;;;;5113509;27;20461;-76
2021/06/18 03:55:11;;;;;;;18.20;16.90;;;22.40;99.90;;;;;;5117976;27;20491;-74
2021/06/18 03:57:40;;;;;;;20.47;18.83;;;22.40;99.90;;;;;;5117090;27;20452;-76
2021/06/18 04:00:08;;;;;;;19.60;18.00;;;22.40;99.90;;;;;;5117710;27;20461;-74
2021/06/18 04:02:38;;;;;;;20.10;18.50;;;22.40;99.90;;;;;;5120365;27;20460;-74
2021/06/18 04:05:06;;;;;;;19.47;17.80;;;22.50;99.90;;;;;;5116618;27;20449;-75
2021/06/18 04:07:34;;;;;;;20.43;17.60;;;22.60;99.90;;;;;;5113377;27;20461;-75
2021/06/18 04:10:03;;;;;;;21.73;17.60;;;22.70;99.90;;;;;;5115109;27;20843;-76
2021/06/18 04:12:31;;;;;;;20.97;19.20;;;22.70;99.90;;;;;;5114509;27;20833;-77
2021/06/18 04:15:01;;;;;;;21.30;19.63;;;22.80;99.90;;;;;;5112514;27;20459;-74
2021/06/18 04:17:29;;;;;;;19.80;17.77;;;22.90;99.90;;;;;;5122448;27;20762;-75
2021/06/18 04:19:57;;;;;;;20.40;18.67;;;23.00;99.90;;;;;;5117464;27;20456;-74
2021/06/18 04:22:31;;;;;;;20.00;18.60;;;23.00;99.90;;;;;;5115957;27;20947;-75
2021/06/18 04:24:57;;;;;;;20.93;19.33;;;23.10;99.90;;;;;;5115505;27;20940;-76
2021/06/18 04:27:24;;;;;;;20.10;18.60;;;23.00;99.90;;;;;;5111846;27;20826;-76
2021/06/18 04:29:52;;;;;;;20.27;18.77;;;22.90;99.90;;;;;;5113216;27;20480;-74
2021/06/18 04:32:21;;;;;;;19.83;18.03;;;23.00;99.90;;;;;;5124051;27;20455;-75
2021/06/18 04:34:48;;;;;;;20.97;19.33;;;22.90;99.90;;;;;;5115044;27;20464;-76
2021/06/18 04:37:15;;;;;;;20.80;18.97;;;23.00;99.90;;;;;;5110429;27;20449;-76
2021/06/18 04:39:42;;;;;;;19.50;18.30;;;23.10;99.90;;;;;;5111750;27;20481;-76
2021/06/18 04:42:09;;;;;;;21.07;19.47;;;23.20;99.90;;;;;;5115548;27;20913;-74
2021/06/18 04:44:35;;;;;;;21.00;19.23;;;23.30;99.90;;;;;;5118007;27;20452;-75
2021/06/18 04:47:03;;;;;;;21.30;19.33;;;23.30;99.90;;;;;;5120145;27;21021;-75
2021/06/18 04:49:31;;;;;;;20.73;19.27;;;23.30;99.90;;;;;;5112453;27;20850;-76
2021/06/18 04:51:58;;;;;;;22.77;20.67;;;23.40;99.90;;;;;;5119593;27;20448;-76
2021/06/18 04:54:26;;;;;;;21.40;19.80;;;23.50;99.90;;;;;;5111919;27;20481;-75
2021/06/18 04:56:53;;;;;;;20.17;18.73;;;23.50;99.90;;;;;;5116760;27;20474;-74
2021/06/18 04:59:20;;;;;;;21.20;19.60;;;23.50;99.90;;;;;;5116416;27;20476;-74
2021/06/18 05:01:47;;;;;;;20.30;18.90;;;23.60;99.90;;;;;;5116913;27;20549;-74
2021/06/18 05:04:14;;;;;;;20.67;18.97;;;23.70;99.90;;;;;;5109981;27;20464;-76
2021/06/18 05:06:43;;;;;;;25.83;20.30;;;23.70;99.90;;;;;;5112875;27;20499;-75
2021/06/18 05:09:09;;;;;;;22.00;19.83;;;23.80;99.90;;;;;;5121934;27;20459;-75
2021/06/18 05:11:37;;;;;;;21.80;20.17;;;23.90;99.90;;;;;;5116489;27;20464;-76
2021/06/18 05:14:04;;;;;;;21.33;19.50;;;24.00;99.90;;;;;;5114630;27;20460;-75
2021/06/18 05:16:31;;;;;;;20.53;19.27;;;24.10;99.90;;;;;;5114715;27;20485;-76
2021/06/18 05:18:58;;;;;;;21.47;19.90;;;24.30;99.90;;;;;;5118922;27;20491;-76
2021/06/18 05:21:25;;;;;;;22.47;20.57;;;24.30;99.90;;;;;;5110793;27;20453;-74
2021/06/18 05:23:53;;;;;;;23.43;20.60;;;24.30;99.90;;;;;;5108528;27;20480;-74
2021/06/18 05:26:20;;;;;;;21.10;19.40;;;24.50;99.90;;;;;;5113250;27;20465;-75
2021/06/18 05:28:47;;;;;;;22.00;20.07;;;24.50;99.90;;;;;;5112401;27;20479;-74
2021/06/18 05:31:14;;;;;;;22.00;20.10;;;24.70;99.90;;;;;;5117635;27;20468;-74
2021/06/18 05:33:40;;;;;;;22.47;20.37;;;24.80;99.90;;;;;;5119909;27;20452;-74
2021/06/18 05:36:07;;;;;;;20.23;18.83;;;24.80;99.90;;;;;;5112459;27;20484;-74
2021/06/18 05:38:34;;;;;;;22.40;20.57;;;25.00;99.90;;;;;;5112960;27;20986;-74
2021/06/18 05:41:03;;;;;;;21.97;19.93;;;25.00;99.90;;;;;;5111536;27;20479;-76
2021/06/18 05:43:30;;;;;;;20.70;19.33;;;25.10;99.90;;;;;;5113074;27;20452;-76
2021/06/18 05:45:56;;;;;;;22.60;20.50;;;25.20;99.90;;;;;;5109652;27;20461;-74
2021/06/18 05:48:23;;;;;;;21.10;19.30;;;25.20;99.90;;;;;;5118080;27;20635;-74
2021/06/18 05:50:51;;;;;;;21.73;20.00;;;25.30;99.90;;;;;;5120485;27;20449;-74
2021/06/18 05:53:19;;;;;;;21.00;19.50;;;25.30;99.90;;;;;;5118277;27;20966;-74
2021/06/18 05:55:46;;;;;;;23.33;21.43;;;25.50;99.90;;;;;;5113451;27;20480;-75
2021/06/18 05:58:14;;;;;;;22.60;20.60;;;25.70;99.90;;;;;;5107523;28;20453;-75
2021/06/18 06:00:41;;;;;;;21.47;19.93;;;26.00;99.90;;;;;;5117168;27;20453;-76
2021/06/18 06:03:08;;;;;;;22.70;20.33;;;26.20;99.90;;;;;;5111163;27;20484;-74
2021/06/18 06:05:35;;;;;;;21.90;20.20;;;26.30;99.90;;;;;;5110172;27;20453;-74
2021/06/18 06:08:02;;;;;;;22.50;20.70;;;26.50;99.90;;;;;;5106459;27;20463;-75
2021/06/18 06:10:29;;;;;;;22.67;20.93;;;26.70;99.90;;;;;;5108616;28;20492;-75
2021/06/18 06:12:56;;;;;;;22.30;20.50;;;26.80;99.90;;;;;;5111942;28;20483;-74
2021/06/18 06:15:24;;;;;;;21.87;19.73;;;27.00;99.90;;;;;;5113048;28;20559;-75
2021/06/18 06:17:52;;;;;;;23.37;21.27;;;27.30;99.90;;;;;;5113265;28;20487;-75
2021/06/18 06:20:19;;;;;;;23.43;21.50;;;27.40;99.90;;;;;;5113570;28;20493;-76
2021/06/18 06:22:46;;;;;;;23.97;22.03;;;27.40;99.90;;;;;;5114980;28;20459;-76
2021/06/18 06:25:13;;;;;;;23.83;21.73;;;27.40;99.90;;;;;;5110249;28;20553;-74
2021/06/18 06:27:40;;;;;;;23.80;21.60;;;27.50;99.90;;;;;;5113901;28;20457;-75
2021/06/18 06:30:08;;;;;;;22.13;20.60;;;27.50;99.90;;;;;;5109804;28;20449;-75
2021/06/18 06:32:37;;;;;;;21.87;19.73;;;27.50;99.90;;;;;;5111999;28;20469;-76
2021/06/18 06:35:04;;;;;;;23.03;21.33;;;27.50;99.90;;;;;;5113803;28;21087;-74
2021/06/18 06:37:31;;;;;;;22.93;21.10;;;27.70;99.90;;;;;;5116763;28;20464;-76
2021/06/18 06:39:58;;;;;;;23.10;21.10;;;28.10;99.90;;;;;;5114390;28;20480;-75
2021/06/18 06:42:25;;;;;;;22.90;21.20;;;28.20;99.90;;;;;;5118898;28;20457;-74
2021/06/18 06:44:51;;;;;;;21.50;19.90;;;28.50;99.90;;;;;;5105049;28;20869;-75
2021/06/18 06:47:18;;;;;;;21.97;20.33;;;28.70;99.90;;;;;;5097419;28;20453;-76
2021/06/18 06:49:47;;;;;;;24.00;21.97;;;29.00;99.90;;;;;;5106391;28;20483;-75
2021/06/18 06:52:14;;;;;;;22.10;20.20;;;29.20;99.90;;;;;;5101316;28;20469;-75
2021/06/18 06:54:41;;;;;;;23.00;21.30;;;29.20;99.90;;;;;;5111143;28;20484;-74
2021/06/18 06:57:08;;;;;;;22.77;20.83;;;29.20;99.90;;;;;;5105352;28;20461;-76
2021/06/18 06:59:35;;;;;;;22.53;20.83;;;29.00;99.90;;;;;;5108460;28;20508;-76
2021/06/18 07:02:02;;;;;;;22.93;21.07;;;29.10;99.90;;;;;;5105001;28;20464;-74
2021/06/18 07:04:29;;;;;;;22.40;20.77;;;29.20;99.90;;;;;;5108706;28;20456;-74
2021/06/18 07:06:57;;;;;;;22.50;20.40;;;29.20;99.90;;;;;;5108404;28;20884;-77
2021/06/18 07:09:24;;;;;;;24.43;22.17;;;29.10;99.90;;;;;;5110284;28;20991;-75
2021/06/18 07:11:51;;;;;;;24.93;22.43;;;28.60;99.90;;;;;;5111524;28;20480;-75
2021/06/18 07:14:17;;;;;;;23.33;21.63;;;28.70;99.90;;;;;;5105072;28;20704;-76
2021/06/18 07:16:44;;;;;;;22.93;21.33;;;28.50;99.90;;;;;;5110192;27;20468;-74
2021/06/18 07:19:11;;;;;;;23.17;21.17;;;28.40;99.90;;;;;;5105562;28;20476;-74
2021/06/18 07:21:38;;;;;;;24.10;22.00;;;28.40;99.90;;;;;;5108060;27;20463;-74
2021/06/18 07:24:07;;;;;;;22.97;21.43;;;28.30;99.90;;;;;;5110148;27;20926;-75
2021/06/18 07:26:34;;;;;;;22.57;20.73;;;28.10;99.90;;;;;;5112345;27;20518;-75
2021/06/18 07:29:01;;;;;;;23.10;21.30;;;27.90;99.90;;;;;;5110317;27;20522;-74
2021/06/18 07:31:28;;;;;;;23.67;21.43;;;27.90;99.90;;;;;;5117354;27;20471;-76
2021/06/18 07:33:55;;;;;;;22.63;20.73;;;28.10;99.90;;;;;;5109216;27;20475;-76
2021/06/18 07:36:22;;;;;;;23.23;21.23;;;28.20;99.90;;;;;;5110417;27;20501;-74
2021/06/18 07:38:49;;;;;;;23.33;21.53;;;28.20;99.90;;;;;;5107858;27;20947;-76
2021/06/18 07:41:18;;;;;;;22.33;20.43;;;28.10;99.90;;;;;;5109774;27;21067;-76
2021/06/18 07:43:45;;;;;;;24.20;22.20;;;27.80;99.90;;;;;;5110340;27;20450;-74
2021/06/18 07:46:12;;;;;;;23.77;21.97;;;27.40;99.90;;;;;;5111399;27;20476;-75
2021/06/18 07:48:41;;;;;;;25.70;23.10;;;27.40;99.90;;;;;;5110079;27;20465;-77
2021/06/18 07:51:09;;;;;;;24.93;22.70;;;27.50;99.90;;;;;;5111954;27;20469;-76
2021/06/18 07:53:36;;;;;;;24.70;22.93;;;27.40;99.90;;;;;;5111511;27;20886;-76
2021/06/18 07:56:04;;;;;;;24.87;22.87;;;27.40;99.90;;;;;;5110720;27;20994;-73
2021/06/18 07:58:32;;;;;;;26.63;24.60;;;27.60;99.90;;;;;;5113901;27;20996;-75
2021/06/18 08:00:59;;;;;;;26.07;24.07;;;27.90;99.90;;;;;;5115350;27;20487;-75
2021/06/18 08:03:25;;;;;;;28.50;25.43;;;28.00;99.90;;;;;;5112702;27;20459;-76
2021/06/18 08:05:52;;;;;;;25.73;23.27;;;27.90;99.90;;;;;;5105499;27;20452;-76
2021/06/18 08:08:19;;;;;;;25.87;23.70;;;28.10;99.90;;;;;;5107217;27;20449;-75
2021/06/18 08:10:46;;;;;;;30.60;24.03;;;28.70;99.90;;;;;;5109809;27;20464;-76
2021/06/18 08:13:13;;;;;;;24.57;22.30;;;28.70;99.90;;;;;;5105599;27;20456;-75
2021/06/18 08:15:41;;;;;;;26.90;24.37;;;28.70;99.90;;;;;;5110672;27;20463;-74
2021/06/18 08:18:08;;;;;;;26.27;23.97;;;28.90;99.90;;;;;;5109138;27;20485;-76
2021/06/18 08:20:34;;;;;;;24.03;22.00;;;29.30;99.90;;;;;;5109570;27;20496;-76
2021/06/18 08:23:01;;;;;;;24.13;22.20;;;29.40;99.90;;;;;;5117730;27;20505;-76
2021/06/18 08:25:28;;;;;;;26.67;24.37;;;29.70;99.90;;;;;;5112448;27;20463;-74
2021/06/18 08:27:55;;;;;;;23.47;21.77;;;30.00;99.90;;;;;;5112690;27;20839;-75
2021/06/18 08:30:24;;;;;;;23.60;21.60;;;30.60;99.90;;;;;;5114014;27;20465;-74
2021/06/18 08:32:53;;;;;;;27.60;24.90;;;30.70;99.90;;;;;;5115963;27;20504;-75
2021/06/18 08:35:20;;;;;;;26.43;24.00;;;30.60;99.90;;;;;;5108072;27;20465;-75
2021/06/18 08:37:48;;;;;;;25.80;23.40;;;30.70;99.90;;;;;;5110162;27;20473;-75
2021/06/18 08:40:16;;;;;;;24.00;22.10;;;31.00;99.90;;;;;;5113345;27;20836;-75
2021/06/18 08:42:43;;;;;;;23.90;21.93;;;31.30;99.90;;;;;;5108799;27;20463;-75
2021/06/18 08:45:11;;;;;;;23.77;21.77;;;31.50;99.90;;;;;;5108578;27;20464;-74
2021/06/18 08:47:38;;;;;;;25.23;22.23;;;31.20;99.90;;;;;;5107986;27;20456;-74
2021/06/18 08:50:09;;;;;;;24.60;22.60;;;31.20;99.90;;;;;;5111199;27;20457;-75
2021/06/18 08:52:39;;;;;;;25.57;23.20;;;31.60;99.90;;;;;;5112864;27;21134;-75
2021/06/18 08:55:07;;;;;;;24.77;23.03;;;31.30;99.90;;;;;;5111597;27;21073;-74
2021/06/18 08:57:34;;;;;;;25.90;23.60;;;31.20;99.90;;;;;;5112493;27;20469;-74
2021/06/18 09:00:01;;;;;;;27.03;24.27;;;31.50;99.90;;;;;;5111274;27;21033;-75
2021/06/18 09:02:28;;;;;;;24.30;21.80;;;32.20;99.90;;;;;;5112752;27;20453;-75
2021/06/18 09:05:04;;;;;;;26.10;22.70;;;32.10;99.90;;;;;;5109675;27;20465;-75
2021/06/18 09:07:49;;;;;;;26.07;23.37;;;32.50;99.90;;;;;;5113093;27;20444;-75
2021/06/18 09:10:24;;;;;;;25.40;23.57;;;32.60;99.90;;;;;;5109012;27;21019;-73
2021/06/18 09:13:06;;;;;;;25.27;22.90;;;32.50;99.90;;;;;;5116532;27;20969;-74
2021/06/18 09:15:34;;;;;;;23.90;21.50;;;32.50;99.90;;;;;;5112853;27;20468;-75
2021/06/18 09:18:26;;;;;;;26.27;21.33;;;33.50;99.90;;;;;;5115945;27;20489;-75
2021/06/18 09:20:55;;;;;;;24.20;22.10;;;34.30;99.90;;;;;;5113360;27;20488;-75
2021/06/18 09:23:25;;;;;;;23.17;21.10;;;34.50;99.90;;;;;;5106097;28;20885;-77
2021/06/18 09:26:26;;;;;;;25.17;22.83;;;35.10;99.90;;;;;;5112612;27;21051;-75
2021/06/18 09:29:14;;;;;;;23.90;21.67;;;35.60;99.90;;;;;;5107558;28;20464;-75
2021/06/18 09:31:46;;;;;;;21.77;19.83;;;35.40;99.90;;;;;;5121254;27;20456;-76
2021/06/18 09:34:14;;;;;;;22.60;20.43;;;35.30;99.00;;;;;;5114167;27;20465;-75
2021/06/18 09:36:42;;;;;;;21.10;19.50;;;35.90;98.60;;;;;;5116543;27;20445;-77
2021/06/18 09:39:15;;;;;;;24.80;20.07;;;35.70;97.80;;;;;;5112759;27;20452;-75
2021/06/18 09:41:44;;;;;;;23.13;20.60;;;36.10;97.80;;;;;;5115318;27;20460;-75
2021/06/18 09:44:13;;;;;;;21.63;19.77;;;36.90;96.60;;;;;;5110361;27;20460;-76
2021/06/18 09:46:41;;;;;;;22.07;20.33;;;37.90;96.40;;;;;;5111574;27;20459;-75
2021/06/18 09:49:11;;;;;;;22.60;20.33;;;38.00;94.90;;;;;;5119849;27;20545;-75
2021/06/18 09:51:54;;;;;;;20.50;19.20;;;38.40;93.50;;;;;;5115140;27;20696;-75
2021/06/18 09:54:23;;;;;;;20.60;19.17;;;37.90;93.40;;;;;;5112713;27;20456;-75
2021/06/18 09:56:50;;;;;;;21.37;19.60;;;37.10;93.90;;;;;;5110793;27;20456;-74
2021/06/18 09:59:24;;;;;;;21.27;19.27;;;37.30;93.90;;;;;;5110644;27;20449;-76
2021/06/18 10:01:54;;;;;;;20.50;18.80;;;36.80;94.70;;;;;;5112742;27;20851;-75
2021/06/18 10:04:24;;;;;;;19.53;18.23;;;36.20;95.40;;;;;;5112590;27;20510;-74
2021/06/18 10:06:52;;;;;;;21.10;19.70;;;36.20;93.70;;;;;;5112746;27;20453;-74
2021/06/18 10:09:20;;;;;;;20.53;18.20;;;36.00;94.40;;;;;;5108712;28;20468;-75
2021/06/18 10:11:50;;;;;;;20.60;18.57;;;36.70;93.20;;;;;;5111850;28;20468;-76
2021/06/18 10:14:17;;;;;;;22.57;18.33;;;37.60;91.60;;;;;;5119178;28;20457;-75
2021/06/18 10:16:43;;;;;;;20.43;18.43;;;37.90;90.50;;;;;;5117259;28;20795;-74
2021/06/18 10:19:11;;;;;;;24.67;18.20;;;37.90;88.60;;;;;;5113645;28;20456;-73
2021/06/18 10:21:50;;;;;;;19.97;17.80;;;37.70;87.80;;;;;;5115987;28;20492;-74
2021/06/18 10:24:19;;;;;;;20.23;18.33;;;38.40;85.80;;;;;;5117902;28;20467;-72
2021/06/18 10:26:53;;;;;;;22.87;18.70;;;38.60;84.50;;;;;;5113892;28;20469;-73
2021/06/18 10:29:31;;;;;;;19.70;17.70;;;38.40;80.10;;;;;;5115610;28;20469;-72
2021/06/18 10:32:11;;;;;;;19.70;17.83;;;38.80;79.20;;;;;;5109868;28;20771;-73
2021/06/18 10:34:40;;;;;;;24.97;17.00;;;39.30;79.60;;;;;;5112320;28;20460;-73
2021/06/18 10:37:21;;;;;;;20.10;17.90;;;39.00;76.20;;;;;;5107979;28;20493;-74
2021/06/18 10:39:52;;;;;;;19.80;17.87;;;39.20;76.30;;;;;;5111714;28;20477;-74
2021/06/18 10:42:22;;;;;;;25.10;17.70;;;38.50;76.20;;;;;;5114521;28;20559;-72
2021/06/18 10:44:50;;;;;;;19.17;17.47;;;39.40;73.80;;;;;;5117591;28;20540;-75
2021/06/18 10:47:45;;;;;;;20.00;18.10;;;39.60;73.70;;;;;;5117637;28;20551;-73
2021/06/18 10:50:14;;;;;;;19.10;17.50;;;39.80;70.60;;;;;;5115797;27;20840;-73
2021/06/18 10:52:44;;;;;;;19.73;17.97;;;39.50;67.90;;;;;;5110404;28;20441;-73
2021/06/18 10:55:13;;;;;;;20.30;18.33;;;38.80;68.30;;;;;;5119910;27;20491;-72
2021/06/18 10:57:53;;;;;;;19.57;17.80;;;38.10;71.40;;;;;;5115953;27;20935;-71
2021/06/18 11:00:23;;;;;;;20.20;18.20;;;37.30;73.00;;;;;;5121648;27;20481;-74
2021/06/18 11:02:50;;;;;;;19.80;17.87;;;37.10;72.30;;;;;;5116963;27;20477;-72
2021/06/18 11:05:32;;;;;;;17.20;15.67;;;36.50;74.20;;;;;;5111328;27;20465;-72
2021/06/18 11:08:29;;;;;;;19.20;15.80;;;36.60;68.10;;;;;;5109929;27;20465;-72
2021/06/18 11:10:59;;;;;;;18.37;16.70;;;36.80;67.00;;;;;;5118429;27;20449;-72
2021/06/18 11:13:28;;;;;;;21.07;15.93;;;36.70;69.30;;;;;;5122854;27;20460;-72
2021/06/18 11:15:56;;;;;;;18.60;16.93;;;37.30;70.80;;;;;;5113403;27;20481;-73
2021/06/18 11:18:33;;;;;;;16.93;15.57;;;37.30;71.10;;;;;;5109339;27;20828;-72
2021/06/18 11:21:01;;;;;;;33.47;16.67;;;37.00;71.80;;;;;;5113152;27;20487;-75
2021/06/18 11:23:32;;;;;;;19.23;16.90;;;36.60;73.40;;;;;;5108775;27;21152;-75
2021/06/18 11:26:01;;;;;;;18.80;17.00;;;36.60;74.20;;;;;;5117069;27;20448;-72
2021/06/18 11:28:51;;;;;;;18.90;16.80;;;36.80;74.20;;;;;;5114958;27;20890;-75
2021/06/18 11:31:40;;;;;;;18.73;17.03;;;37.20;73.00;;;;;;5117051;27;20469;-75
2021/06/18 11:34:07;;;;;;;21.67;17.37;;;38.60;69.90;;;;;;5108656;27;20464;-73
2021/06/18 11:36:43;;;;;;;20.53;17.50;;;39.30;67.10;;;;;;5123442;27;20456;-75
2021/06/18 11:39:22;;;;;;;19.80;17.80;;;39.70;64.90;;;;;;5122000;27;20456;-73
2021/06/18 11:42:04;;;;;;;18.27;16.67;;;40.40;61.50;;;;;;5123081;27;20483;-73
2021/06/18 11:44:32;;;;;;;18.97;17.00;;;41.00;60.10;;;;;;5126030;27;20460;-76
2021/06/18 11:47:01;;;;;;;17.73;16.20;;;41.60;57.20;;;;;;5129262;27;20460;-73
2021/06/18 11:49:36;;;;;;;19.03;16.17;;;41.00;58.10;;;;;;5123335;27;20495;-74
2021/06/18 11:52:12;;;;;;;18.00;16.57;;;40.90;58.10;;;;;;5122237;27;20538;-73
2021/06/18 11:54:41;;;;;;;17.73;16.23;;;41.40;55.80;;;;;;5124324;27;20605;-73
2021/06/18 11:57:12;;;;;;;18.20;16.57;;;41.40;55.40;;;;;;5127042;27;20527;-75
2021/06/18 11:59:41;;;;;;;18.00;15.67;;;41.90;54.00;;;;;;5123810;27;20453;-73
2021/06/18 12:02:20;;;;;;;17.73;16.07;;;42.30;53.80;;;;;;5123571;27;20520;-74
2021/06/18 12:04:59;;;;;;;23.63;16.40;;;42.20;53.40;;;;;;5117426;27;21042;-75
2021/06/18 12:07:30;;;;;;;18.13;16.70;;;42.30;53.50;;;;;;5121387;27;20520;-74
2021/06/18 12:09:57;;;;;;;18.40;16.70;;;42.40;53.00;;;;;;5125006;27;20456;-73
2021/06/18 12:12:24;;;;;;;17.67;16.23;;;42.20;52.80;;;;;;5121923;27;20456;-76
2021/06/18 12:14:57;;;;;;;17.33;16.03;;;42.80;50.40;;;;;;5117924;27;20469;-75
2021/06/18 12:17:24;;;;;;;18.30;16.50;;;41.90;50.60;;;;;;5119540;27;20484;-73
2021/06/18 12:19:53;;;;;;;17.33;16.03;;;41.60;50.90;;;;;;5122338;27;20452;-74
2021/06/18 12:22:21;;;;;;;17.13;15.47;;;41.70;50.70;;;;;;5122984;27;20588;-73
2021/06/18 12:24:51;;;;;;;18.20;16.60;;;42.10;50.20;;;;;;5122233;27;20452;-73
2021/06/18 12:27:20;;;;;;;18.70;16.90;;;42.70;50.70;;;;;;5121336;27;20452;-75
2021/06/18 12:29:52;;;;;;;17.57;16.00;;;42.70;49.90;;;;;;5124473;27;20483;-73
2021/06/18 12:32:22;;;;;;;18.33;15.97;;;41.80;50.30;;;;;;5124576;27;20460;-75
2021/06/18 12:34:50;;;;;;;17.10;15.53;;;42.40;50.80;;;;;;5123822;27;20460;-75
2021/06/18 12:37:19;;;;;;;17.33;16.10;;;43.10;50.30;;;;;;5123681;27;20920;-74
2021/06/18 12:39:54;;;;;;;16.97;15.30;;;43.80;49.20;;;;;;5126453;27;20463;-76